首页
METAR-TAF:

METAR-TAF

机场 :

Meadow Lake, 薩斯喀徹溫, 加拿大

纬度: 54-08N, 经度: 108-31W, 海拔: 480米

当前天气观测

该预报发布于54分钟前的18:00 UTC
风速15节,风向西转西北,有时为24节阵风
温度 20°C
湿度 28%
气压 1011 hPa
能見度: 24.1公里
少量云层高于7500英尺

METAR: CYLJ 021800Z 29015G24KT 15SM FEW075 20/01 A2986 RMK AC1 SLP119 DENSITY ALT 2600FT

时间: 12:54 (18:54 UTC)


TAF: 丢失

超过4000个机场的气象观测和天气预报(METAR&TAF报告)。

可查询的气象台以黄色和红色小点在地图上表示。

将鼠标移到小点上方,可查看气象台名称。

然后点击查看天气观测和预报。

如需切换地图:点击带黑十字的绿色按钮放大地图;点击带横线的绿色按钮缩小地图;或者点击绿色箭头查看邻近地区的地图。


METAR-TAF: